sensor_id;sensor_type;location;lat;lon;timestamp;pressure;altitude;pressure_sealevel;temperature;humidity
6028;BME280;3042;43.194;27.646;2024-03-02T00:00:30;101429.97;;;16.24;100.00
6028;BME280;3042;43.194;27.646;2024-03-02T00:02:57;101423.38;;;16.36;100.00
6028;BME280;3042;43.194;27.646;2024-03-02T00:05:26;101395.25;;;16.25;100.00
6028;BME280;3042;43.194;27.646;2024-03-02T00:07:54;101422.25;;;16.55;100.00
6028;BME280;3042;43.194;27.646;2024-03-02T00:10:24;101429.47;;;16.63;100.00
6028;BME280;3042;43.194;27.646;2024-03-02T00:12:55;101378.38;;;16.41;100.00
6028;BME280;3042;43.194;27.646;2024-03-02T00:15:47;101419.13;;;16.66;100.00
6028;BME280;3042;43.194;27.646;2024-03-02T00:18:19;101421.78;;;16.68;100.00
6028;BME280;3042;43.194;27.646;2024-03-02T00:20:48;101404.31;;;16.37;100.00
6028;BME280;3042;43.194;27.646;2024-03-02T00:23:16;101437.56;;;16.44;100.00
6028;BME280;3042;43.194;27.646;2024-03-02T00:25:46;101434.19;;;16.48;100.00
6028;BME280;3042;43.194;27.646;2024-03-02T00:28:16;101419.78;;;16.59;100.00
6028;BME280;3042;43.194;27.646;2024-03-02T00:30:55;101386.88;;;16.36;100.00
6028;BME280;3042;43.194;27.646;2024-03-02T00:33:23;101411.19;;;16.63;100.00
6028;BME280;3042;43.194;27.646;2024-03-02T00:35:54;101404.03;;;16.83;100.00
6028;BME280;3042;43.194;27.646;2024-03-02T00:38:22;101417.16;;;16.59;100.00
6028;BME280;3042;43.194;27.646;2024-03-02T00:40:49;101412.44;;;16.48;100.00
6028;BME280;3042;43.194;27.646;2024-03-02T00:43:47;101399.09;;;16.37;100.00
6028;BME280;3042;43.194;27.646;2024-03-02T00:46:19;101399.63;;;16.27;100.00
6028;BME280;3042;43.194;27.646;2024-03-02T00:48:53;101389.53;;;16.10;100.00
6028;BME280;3042;43.194;27.646;2024-03-02T00:51:23;101358.50;;;15.91;100.00
6028;BME280;3042;43.194;27.646;2024-03-02T00:53:52;101383.44;;;16.37;100.00
6028;BME280;3042;43.194;27.646;2024-03-02T00:56:21;101388.16;;;16.21;100.00
6028;BME280;3042;43.194;27.646;2024-03-02T00:58:49;101316.38;;;16.04;100.00
6028;BME280;3042;43.194;27.646;2024-03-02T01:01:17;101381.06;;;16.17;100.00
6028;BME280;3042;43.194;27.646;2024-03-02T01:03:45;101374.31;;;16.51;100.00
6028;BME280;3042;43.194;27.646;2024-03-02T01:06:13;101370.47;;;16.11;100.00
6028;BME280;3042;43.194;27.646;2024-03-02T01:08:41;101368.78;;;15.86;100.00
6028;BME280;3042;43.194;27.646;2024-03-02T01:11:09;101355.81;;;15.88;100.00
6028;BME280;3042;43.194;27.646;2024-03-02T01:13:37;101346.25;;;15.62;100.00
6028;BME280;3042;43.194;27.646;2024-03-02T01:16:04;101343.66;;;15.62;100.00
6028;BME280;3042;43.194;27.646;2024-03-02T01:18:31;101352.63;;;15.71;100.00
6028;BME280;3042;43.194;27.646;2024-03-02T01:20:59;101351.06;;;16.03;100.00
6028;BME280;3042;43.194;27.646;2024-03-02T01:23:27;101347.94;;;15.86;100.00
6028;BME280;3042;43.194;27.646;2024-03-02T01:25:55;101332.47;;;16.19;100.00
6028;BME280;3042;43.194;27.646;2024-03-02T01:28:23;101308.78;;;15.85;100.00
6028;BME280;3042;43.194;27.646;2024-03-02T01:30:50;101336.72;;;15.89;100.00
6028;BME280;3042;43.194;27.646;2024-03-02T01:33:17;101329.63;;;15.85;100.00
6028;BME280;3042;43.194;27.646;2024-03-02T01:35:44;101324.03;;;15.72;100.00
6028;BME280;3042;43.194;27.646;2024-03-02T01:38:12;101330.38;;;15.55;100.00
6028;BME280;3042;43.194;27.646;2024-03-02T01:40:39;101335.34;;;16.00;100.00
6028;BME280;3042;43.194;27.646;2024-03-02T01:43:08;101338.59;;;15.93;100.00
6028;BME280;3042;43.194;27.646;2024-03-02T01:45:36;101282.41;;;15.48;100.00
6028;BME280;3042;43.194;27.646;2024-03-02T01:48:04;101346.75;;;15.76;100.00
6028;BME280;3042;43.194;27.646;2024-03-02T01:50:32;101319.47;;;15.67;100.00
6028;BME280;3042;43.194;27.646;2024-03-02T01:53:00;101341.72;;;16.10;100.00
6028;BME280;3042;43.194;27.646;2024-03-02T01:55:27;101333.06;;;16.11;100.00
6028;BME280;3042;43.194;27.646;2024-03-02T01:57:56;101359.13;;;16.38;100.00
6028;BME280;3042;43.194;27.646;2024-03-02T02:00:25;101347.88;;;16.39;100.00
6028;BME280;3042;43.194;27.646;2024-03-02T02:02:52;101343.09;;;16.54;100.00
6028;BME280;3042;43.194;27.646;2024-03-02T02:05:20;101345.63;;;16.53;100.00
6028;BME280;3042;43.194;27.646;2024-03-02T02:07:47;101348.53;;;16.62;100.00
6028;BME280;3042;43.194;27.646;2024-03-02T02:10:14;101360.22;;;16.17;100.00
6028;BME280;3042;43.194;27.646;2024-03-02T02:12:42;101360.72;;;16.06;100.00
6028;BME280;3042;43.194;27.646;2024-03-02T02:15:22;101364.41;;;16.12;100.00
6028;BME280;3042;43.194;27.646;2024-03-02T02:17:51;101353.31;;;16.48;100.00
6028;BME280;3042;43.194;27.646;2024-03-02T02:20:19;101336.59;;;16.40;100.00
6028;BME280;3042;43.194;27.646;2024-03-02T02:22:58;101357.78;;;16.79;100.00
6028;BME280;3042;43.194;27.646;2024-03-02T02:25:25;101219.00;;;16.02;100.00
6028;BME280;3042;43.194;27.646;2024-03-02T02:27:53;101309.41;;;16.92;100.00
6028;BME280;3042;43.194;27.646;2024-03-02T02:30:21;101350.38;;;17.26;100.00
6028;BME280;3042;43.194;27.646;2024-03-02T02:32:49;101341.25;;;17.44;100.00
6028;BME280;3042;43.194;27.646;2024-03-02T02:35:16;101335.91;;;17.39;100.00
6028;BME280;3042;43.194;27.646;2024-03-02T02:37:44;101264.31;;;16.98;100.00
6028;BME280;3042;43.194;27.646;2024-03-02T02:40:14;101333.03;;;17.30;100.00
6028;BME280;3042;43.194;27.646;2024-03-02T02:42:41;101342.50;;;17.25;100.00
6028;BME280;3042;43.194;27.646;2024-03-02T02:45:09;101349.31;;;17.20;100.00
6028;BME280;3042;43.194;27.646;2024-03-02T02:47:36;101351.19;;;17.24;100.00
6028;BME280;3042;43.194;27.646;2024-03-02T02:50:04;101348.28;;;17.13;100.00
6028;BME280;3042;43.194;27.646;2024-03-02T02:52:32;101349.31;;;17.20;100.00
6028;BME280;3042;43.194;27.646;2024-03-02T02:55:03;101353.19;;;17.34;100.00
6028;BME280;3042;43.194;27.646;2024-03-02T02:57:32;101256.81;;;16.48;100.00
6028;BME280;3042;43.194;27.646;2024-03-02T03:00:02;101359.59;;;17.14;100.00
6028;BME280;3042;43.194;27.646;2024-03-02T03:02:36;101346.75;;;17.21;100.00
6028;BME280;3042;43.194;27.646;2024-03-02T03:05:05;101347.13;;;17.03;100.00
6028;BME280;3042;43.194;27.646;2024-03-02T03:07:33;101343.88;;;16.80;100.00
6028;BME280;3042;43.194;27.646;2024-03-02T03:10:00;101342.50;;;16.93;100.00
6028;BME280;3042;43.194;27.646;2024-03-02T03:12:29;101290.31;;;16.64;100.00
6028;BME280;3042;43.194;27.646;2024-03-02T03:14:58;101327.19;;;17.05;100.00
6028;BME280;3042;43.194;27.646;2024-03-02T03:17:26;101342.16;;;17.13;100.00
6028;BME280;3042;43.194;27.646;2024-03-02T03:19:54;101340.84;;;16.95;100.00
6028;BME280;3042;43.194;27.646;2024-03-02T03:22:21;101343.56;;;17.00;100.00
6028;BME280;3042;43.194;27.646;2024-03-02T03:24:48;101328.69;;;17.29;100.00
6028;BME280;3042;43.194;27.646;2024-03-02T03:27:16;101248.88;;;16.75;100.00
6028;BME280;3042;43.194;27.646;2024-03-02T03:29:43;101324.31;;;17.28;100.00
6028;BME280;3042;43.194;27.646;2024-03-02T03:32:11;101298.88;;;17.21;100.00
6028;BME280;3042;43.194;27.646;2024-03-02T03:34:39;101332.47;;;17.07;100.00
6028;BME280;3042;43.194;27.646;2024-03-02T03:37:07;101348.31;;;16.54;100.00
6028;BME280;3042;43.194;27.646;2024-03-02T03:39:35;101351.00;;;16.57;100.00
6028;BME280;3042;43.194;27.646;2024-03-02T03:42:02;101366.66;;;16.57;100.00
6028;BME280;3042;43.194;27.646;2024-03-02T03:44:30;101363.25;;;16.60;100.00
6028;BME280;3042;43.194;27.646;2024-03-02T03:46:57;101361.53;;;16.60;100.00
6028;BME280;3042;43.194;27.646;2024-03-02T03:49:25;101352.31;;;16.72;100.00
6028;BME280;3042;43.194;27.646;2024-03-02T03:51:53;101352.88;;;16.61;100.00
6028;BME280;3042;43.194;27.646;2024-03-02T03:54:20;101357.53;;;16.72;100.00
6028;BME280;3042;43.194;27.646;2024-03-02T03:56:47;101357.41;;;16.68;100.00
6028;BME280;3042;43.194;27.646;2024-03-02T03:59:14;101226.53;;;15.93;100.00
6028;BME280;3042;43.194;27.646;2024-03-02T04:01:41;101335.06;;;16.78;100.00
6028;BME280;3042;43.194;27.646;2024-03-02T04:04:09;101334.19;;;16.78;100.00
6028;BME280;3042;43.194;27.646;2024-03-02T04:06:37;101332.56;;;16.80;100.00
6028;BME280;3042;43.194;27.646;2024-03-02T04:09:04;101310.50;;;16.40;100.00
6028;BME280;3042;43.194;27.646;2024-03-02T04:11:32;101340.47;;;16.54;100.00
6028;BME280;3042;43.194;27.646;2024-03-02T04:13:59;101344.69;;;16.20;100.00
6028;BME280;3042;43.194;27.646;2024-03-02T04:16:26;101340.25;;;16.18;100.00
6028;BME280;3042;43.194;27.646;2024-03-02T04:18:54;101335.34;;;16.00;100.00
6028;BME280;3042;43.194;27.646;2024-03-02T04:21:21;101343.56;;;15.85;100.00
6028;BME280;3042;43.194;27.646;2024-03-02T04:23:50;101336.38;;;16.05;100.00
6028;BME280;3042;43.194;27.646;2024-03-02T04:26:17;101345.84;;;16.01;100.00
6028;BME280;3042;43.194;27.646;2024-03-02T04:28:48;101322.66;;;15.83;100.00
6028;BME280;3042;43.194;27.646;2024-03-02T04:31:15;101368.69;;;15.83;100.00
6028;BME280;3042;43.194;27.646;2024-03-02T04:33:42;101361.91;;;15.88;100.00
6028;BME280;3042;43.194;27.646;2024-03-02T04:36:10;101361.31;;;15.97;100.00
6028;BME280;3042;43.194;27.646;2024-03-02T04:38:37;101361.78;;;16.12;100.00
6028;BME280;3042;43.194;27.646;2024-03-02T04:41:06;101268.75;;;15.55;100.00
6028;BME280;3042;43.194;27.646;2024-03-02T04:43:34;101362.28;;;16.28;100.00
6028;BME280;3042;43.194;27.646;2024-03-02T04:46:01;101364.47;;;16.14;100.00
6028;BME280;3042;43.194;27.646;2024-03-02T04:48:29;101356.50;;;16.09;100.00
6028;BME280;3042;43.194;27.646;2024-03-02T04:50:56;101334.31;;;15.95;100.00
6028;BME280;3042;43.194;27.646;2024-03-02T04:53:23;101354.97;;;16.16;100.00
6028;BME280;3042;43.194;27.646;2024-03-02T04:55:51;101365.63;;;16.23;100.00
6028;BME280;3042;43.194;27.646;2024-03-02T04:58:36;101373.38;;;16.49;100.00
6028;BME280;3042;43.194;27.646;2024-03-02T05:01:04;101363.50;;;16.67;100.00
6028;BME280;3042;43.194;27.646;2024-03-02T05:03:31;101291.81;;;16.26;100.00
6028;BME280;3042;43.194;27.646;2024-03-02T05:06:00;101265.41;;;16.15;100.00
6028;BME280;3042;43.194;27.646;2024-03-02T05:08:27;101359.94;;;16.65;100.00
6028;BME280;3042;43.194;27.646;2024-03-02T05:10:54;101359.31;;;16.44;100.00
6028;BME280;3042;43.194;27.646;2024-03-02T05:13:43;101334.72;;;16.36;100.00
6028;BME280;3042;43.194;27.646;2024-03-02T05:16:10;101357.06;;;16.28;100.00
6028;BME280;3042;43.194;27.646;2024-03-02T05:18:37;101356.13;;;15.97;100.00
6028;BME280;3042;43.194;27.646;2024-03-02T05:21:04;101351.19;;;16.06;100.00
6028;BME280;3042;43.194;27.646;2024-03-02T05:23:31;101348.69;;;16.11;100.00
6028;BME280;3042;43.194;27.646;2024-03-02T05:25:58;101352.16;;;15.82;100.00
6028;BME280;3042;43.194;27.646;2024-03-02T05:28:26;101338.00;;;15.74;100.00
6028;BME280;3042;43.194;27.646;2024-03-02T05:30:54;101350.25;;;16.04;100.00
6028;BME280;3042;43.194;27.646;2024-03-02T05:33:21;101351.56;;;15.91;100.00
6028;BME280;3042;43.194;27.646;2024-03-02T05:35:49;101348.22;;;15.95;100.00
6028;BME280;3042;43.194;27.646;2024-03-02T05:38:17;101324.91;;;16.00;100.00
6028;BME280;3042;43.194;27.646;2024-03-02T05:40:44;101352.31;;;16.43;100.00
6028;BME280;3042;43.194;27.646;2024-03-02T05:43:11;101317.63;;;16.17;100.00
6028;BME280;3042;43.194;27.646;2024-03-02T05:45:38;101344.97;;;16.30;100.00
6028;BME280;3042;43.194;27.646;2024-03-02T05:48:07;101348.41;;;16.29;100.00
6028;BME280;3042;43.194;27.646;2024-03-02T05:50:35;101338.34;;;16.41;100.00
6028;BME280;3042;43.194;27.646;2024-03-02T05:53:02;101337.66;;;16.46;100.00
6028;BME280;3042;43.194;27.646;2024-03-02T05:55:29;101336.47;;;16.65;100.00
6028;BME280;3042;43.194;27.646;2024-03-02T05:57:57;101330.50;;;16.70;100.00
6028;BME280;3042;43.194;27.646;2024-03-02T06:00:41;101339.25;;;16.72;100.00
6028;BME280;3042;43.194;27.646;2024-03-02T06:03:09;101332.91;;;16.92;100.00
6028;BME280;3042;43.194;27.646;2024-03-02T06:05:37;101345.63;;;16.51;100.00
6028;BME280;3042;43.194;27.646;2024-03-02T06:08:04;101345.50;;;16.48;100.00
6028;BME280;3042;43.194;27.646;2024-03-02T06:10:31;101344.63;;;16.19;100.00
6028;BME280;3042;43.194;27.646;2024-03-02T06:12:59;101310.66;;;16.16;100.00
6028;BME280;3042;43.194;27.646;2024-03-02T06:15:26;101346.44;;;16.21;100.00
6028;BME280;3042;43.194;27.646;2024-03-02T06:17:53;101355.28;;;16.27;100.00
6028;BME280;3042;43.194;27.646;2024-03-02T06:20:22;101337.06;;;16.55;100.00
6028;BME280;3042;43.194;27.646;2024-03-02T06:22:49;101343.94;;;16.53;100.00
6028;BME280;3042;43.194;27.646;2024-03-02T06:25:16;101349.25;;;16.56;100.00
6028;BME280;3042;43.194;27.646;2024-03-02T06:27:43;101347.47;;;16.55;100.00
6028;BME280;3042;43.194;27.646;2024-03-02T06:30:12;101343.56;;;16.70;100.00
6028;BME280;3042;43.194;27.646;2024-03-02T06:32:39;101335.47;;;16.91;100.00
6028;BME280;3042;43.194;27.646;2024-03-02T06:35:06;101311.78;;;16.54;100.00
6028;BME280;3042;43.194;27.646;2024-03-02T06:37:38;101325.94;;;16.62;100.00
6028;BME280;3042;43.194;27.646;2024-03-02T06:40:07;101338.38;;;17.01;100.00
6028;BME280;3042;43.194;27.646;2024-03-02T06:42:34;101348.22;;;16.80;100.00
6028;BME280;3042;43.194;27.646;2024-03-02T06:45:02;101103.44;;;15.71;100.00
6028;BME280;3042;43.194;27.646;2024-03-02T06:47:29;101327.75;;;17.27;100.00
6028;BME280;3042;43.194;27.646;2024-03-02T06:49:57;101337.50;;;17.01;100.00
6028;BME280;3042;43.194;27.646;2024-03-02T06:52:24;101331.13;;;17.23;100.00
6028;BME280;3042;43.194;27.646;2024-03-02T06:54:53;101329.00;;;17.41;100.00
6028;BME280;3042;43.194;27.646;2024-03-02T06:57:20;101127.16;;;16.12;100.00
6028;BME280;3042;43.194;27.646;2024-03-02T06:59:47;101285.84;;;16.89;100.00
6028;BME280;3042;43.194;27.646;2024-03-02T07:02:17;101325.56;;;17.42;100.00
6028;BME280;3042;43.194;27.646;2024-03-02T07:04:44;101329.91;;;17.43;100.00
6028;BME280;3042;43.194;27.646;2024-03-02T07:07:11;101335.97;;;17.76;100.00
6028;BME280;3042;43.194;27.646;2024-03-02T07:09:38;101331.03;;;17.20;100.00
6028;BME280;3042;43.194;27.646;2024-03-02T07:12:07;101336.94;;;17.13;100.00
6028;BME280;3042;43.194;27.646;2024-03-02T07:14:35;101326.81;;;17.25;100.00
6028;BME280;3042;43.194;27.646;2024-03-02T07:17:36;101329.88;;;17.08;100.00
6028;BME280;3042;43.194;27.646;2024-03-02T07:20:04;101326.50;;;17.13;100.00
6028;BME280;3042;43.194;27.646;2024-03-02T07:22:32;101153.50;;;16.53;100.00
6028;BME280;3042;43.194;27.646;2024-03-02T07:25:00;101322.53;;;17.27;100.00
6028;BME280;3042;43.194;27.646;2024-03-02T07:27:30;101233.38;;;16.80;100.00
6028;BME280;3042;43.194;27.646;2024-03-02T07:29:59;101326.19;;;17.34;100.00
6028;BME280;3042;43.194;27.646;2024-03-02T07:32:26;101327.22;;;17.07;100.00
6028;BME280;3042;43.194;27.646;2024-03-02T07:34:53;101297.34;;;17.29;100.00
6028;BME280;3042;43.194;27.646;2024-03-02T07:37:21;101175.50;;;16.64;100.00
6028;BME280;3042;43.194;27.646;2024-03-02T07:39:48;101317.53;;;17.36;100.00
6028;BME280;3042;43.194;27.646;2024-03-02T07:42:16;101313.09;;;17.67;100.00
6028;BME280;3042;43.194;27.646;2024-03-02T07:44:45;101320.22;;;17.72;100.00
6028;BME280;3042;43.194;27.646;2024-03-02T07:47:12;101312.91;;;17.96;100.00
6028;BME280;3042;43.194;27.646;2024-03-02T07:49:40;101284.50;;;17.73;100.00
6028;BME280;3042;43.194;27.646;2024-03-02T07:52:07;101308.66;;;18.39;100.00
6028;BME280;3042;43.194;27.646;2024-03-02T07:54:34;101307.09;;;18.47;100.00
6028;BME280;3042;43.194;27.646;2024-03-02T07:57:02;101313.09;;;18.41;100.00
6028;BME280;3042;43.194;27.646;2024-03-02T07:59:29;101266.75;;;18.35;100.00
6028;BME280;3042;43.194;27.646;2024-03-02T08:01:58;101283.84;;;18.21;100.00
6028;BME280;3042;43.194;27.646;2024-03-02T08:04:26;101318.66;;;18.17;100.00
6028;BME280;3042;43.194;27.646;2024-03-02T08:06:53;101312.44;;;18.12;100.00
6028;BME280;3042;43.194;27.646;2024-03-02T08:09:21;101212.56;;;17.52;100.00
6028;BME280;3042;43.194;27.646;2024-03-02T08:11:48;101319.53;;;18.18;100.00
6028;BME280;3042;43.194;27.646;2024-03-02T08:14:15;101322.22;;;18.21;100.00
6028;BME280;3042;43.194;27.646;2024-03-02T08:16:43;101314.06;;;17.72;100.00
6028;BME280;3042;43.194;27.646;2024-03-02T08:19:12;101323.44;;;18.37;100.00
6028;BME280;3042;43.194;27.646;2024-03-02T08:21:39;101319.97;;;18.36;100.00
6028;BME280;3042;43.194;27.646;2024-03-02T08:24:06;101328.09;;;18.50;100.00
6028;BME280;3042;43.194;27.646;2024-03-02T08:26:34;101332.56;;;18.16;100.00
6028;BME280;3042;43.194;27.646;2024-03-02T08:29:01;101298.06;;;18.32;100.00
6028;BME280;3042;43.194;27.646;2024-03-02T08:31:29;101230.69;;;17.46;100.00
6028;BME280;3042;43.194;27.646;2024-03-02T08:33:56;101337.69;;;18.11;100.00
6028;BME280;3042;43.194;27.646;2024-03-02T08:36:25;101340.16;;;18.04;100.00
6028;BME280;3042;43.194;27.646;2024-03-02T08:38:53;101343.69;;;18.07;100.00
6028;BME280;3042;43.194;27.646;2024-03-02T08:41:21;101345.44;;;18.07;100.00
6028;BME280;3042;43.194;27.646;2024-03-02T08:43:49;101233.16;;;17.77;100.00
6028;BME280;3042;43.194;27.646;2024-03-02T08:46:16;101339.13;;;18.76;100.00
6028;BME280;3042;43.194;27.646;2024-03-02T08:48:43;101339.44;;;18.90;100.00
6028;BME280;3042;43.194;27.646;2024-03-02T08:51:11;101311.53;;;18.92;100.00
6028;BME280;3042;43.194;27.646;2024-03-02T08:53:39;101335.44;;;19.10;100.00
6028;BME280;3042;43.194;27.646;2024-03-02T08:56:07;101294.47;;;18.68;100.00
6028;BME280;3042;43.194;27.646;2024-03-02T08:58:34;101336.69;;;19.31;100.00
6028;BME280;3042;43.194;27.646;2024-03-02T09:01:02;101336.34;;;19.12;100.00
6028;BME280;3042;43.194;27.646;2024-03-02T09:03:29;101334.41;;;19.49;100.00
6028;BME280;3042;43.194;27.646;2024-03-02T09:05:58;101345.22;;;19.19;100.00
6028;BME280;3042;43.194;27.646;2024-03-02T09:08:26;101286.78;;;19.23;100.00
6028;BME280;3042;43.194;27.646;2024-03-02T09:10:55;101304.00;;;19.60;100.00
6028;BME280;3042;43.194;27.646;2024-03-02T09:13:22;101327.38;;;19.98;100.00
6028;BME280;3042;43.194;27.646;2024-03-02T09:15:49;101248.00;;;19.55;100.00
6028;BME280;3042;43.194;27.646;2024-03-02T09:18:17;101328.53;;;19.63;100.00
6028;BME280;3042;43.194;27.646;2024-03-02T09:20:44;101319.53;;;20.00;100.00
6028;BME280;3042;43.194;27.646;2024-03-02T09:23:12;101284.03;;;19.15;100.00
6028;BME280;3042;43.194;27.646;2024-03-02T09:25:39;101334.94;;;19.30;100.00
6028;BME280;3042;43.194;27.646;2024-03-02T09:28:08;101249.00;;;18.65;100.00
6028;BME280;3042;43.194;27.646;2024-03-02T09:30:35;101229.59;;;18.11;100.00
6028;BME280;3042;43.194;27.646;2024-03-02T09:33:03;101320.13;;;18.85;100.00
6028;BME280;3042;43.194;27.646;2024-03-02T09:35:31;101322.34;;;18.68;100.00
6028;BME280;3042;43.194;27.646;2024-03-02T09:37:59;101207.09;;;18.63;100.00
6028;BME280;3042;43.194;27.646;2024-03-02T09:40:26;101181.91;;;18.68;100.00
6028;BME280;3042;43.194;27.646;2024-03-02T09:42:54;101312.44;;;19.41;100.00
6028;BME280;3042;43.194;27.646;2024-03-02T09:45:25;101254.31;;;19.13;100.00
6028;BME280;3042;43.194;27.646;2024-03-02T09:47:52;101192.13;;;19.03;100.00
6028;BME280;3042;43.194;27.646;2024-03-02T09:50:20;101296.22;;;19.65;100.00
6028;BME280;3042;43.194;27.646;2024-03-02T09:52:48;101260.06;;;19.44;100.00
6028;BME280;3042;43.194;27.646;2024-03-02T09:55:16;101303.59;;;18.89;100.00
6028;BME280;3042;43.194;27.646;2024-03-02T09:57:45;101308.75;;;18.83;100.00
6028;BME280;3042;43.194;27.646;2024-03-02T10:00:15;101314.94;;;18.45;100.00
6028;BME280;3042;43.194;27.646;2024-03-02T10:02:44;101300.59;;;18.70;100.00
6028;BME280;3042;43.194;27.646;2024-03-02T10:05:23;101289.84;;;19.01;100.00
6028;BME280;3042;43.194;27.646;2024-03-02T10:07:59;101106.09;;;18.27;100.00
6028;BME280;3042;43.194;27.646;2024-03-02T10:10:34;101277.97;;;19.70;100.00
6028;BME280;3042;43.194;27.646;2024-03-02T10:13:06;101232.91;;;19.39;100.00
6028;BME280;3042;43.194;27.646;2024-03-02T10:15:35;101264.53;;;20.08;100.00
6028;BME280;3042;43.194;27.646;2024-03-02T10:18:05;101265.50;;;20.14;100.00
6028;BME280;3042;43.194;27.646;2024-03-02T10:20:35;101220.34;;;19.76;100.00
6028;BME280;3042;43.194;27.646;2024-03-02T10:23:12;101177.78;;;19.36;100.00
6028;BME280;3042;43.194;27.646;2024-03-02T10:25:39;101274.56;;;19.75;100.00
6028;BME280;3042;43.194;27.646;2024-03-02T10:28:07;101152.78;;;19.00;100.00
6028;BME280;3042;43.194;27.646;2024-03-02T10:30:35;101113.38;;;18.94;100.00
6028;BME280;3042;43.194;27.646;2024-03-02T10:33:02;101222.31;;;19.89;100.00
6028;BME280;3042;43.194;27.646;2024-03-02T10:35:32;101240.38;;;20.33;100.00
6028;BME280;3042;43.194;27.646;2024-03-02T10:38:04;101250.13;;;20.43;100.00
6028;BME280;3042;43.194;27.646;2024-03-02T10:40:32;101206.81;;;20.08;100.00
6028;BME280;3042;43.194;27.646;2024-03-02T10:43:01;101248.81;;;20.11;100.00
6028;BME280;3042;43.194;27.646;2024-03-02T10:45:29;101248.84;;;20.12;100.00
6028;BME280;3042;43.194;27.646;2024-03-02T10:47:56;101176.91;;;19.93;100.00
6028;BME280;3042;43.194;27.646;2024-03-02T10:50:25;101214.81;;;20.17;100.00
6028;BME280;3042;43.194;27.646;2024-03-02T10:52:53;101250.53;;;20.09;100.00
6028;BME280;3042;43.194;27.646;2024-03-02T10:55:20;101243.09;;;20.39;100.00
6028;BME280;3042;43.194;27.646;2024-03-02T10:57:51;101197.66;;;19.78;100.00
6028;BME280;3042;43.194;27.646;2024-03-02T11:00:19;101106.31;;;19.48;100.00
6028;BME280;3042;43.194;27.646;2024-03-02T11:02:55;101238.31;;;20.11;100.00
6028;BME280;3042;43.194;27.646;2024-03-02T11:05:27;100967.88;;;18.53;100.00
6028;BME280;3042;43.194;27.646;2024-03-02T11:08:01;101244.78;;;19.72;100.00
6028;BME280;3042;43.194;27.646;2024-03-02T11:10:34;101234.44;;;19.81;100.00
6028;BME280;3042;43.194;27.646;2024-03-02T11:13:05;101232.91;;;19.95;100.00
6028;BME280;3042;43.194;27.646;2024-03-02T11:15:35;100840.38;;;17.35;100.00
6028;BME280;3042;43.194;27.646;2024-03-02T11:18:04;101135.53;;;19.14;100.00
6028;BME280;3042;43.194;27.646;2024-03-02T11:20:36;101217.31;;;19.48;100.00
6028;BME280;3042;43.194;27.646;2024-03-02T11:23:07;101155.81;;;18.74;100.00
6028;BME280;3042;43.194;27.646;2024-03-02T11:25:35;101125.78;;;19.06;100.00
6028;BME280;3042;43.194;27.646;2024-03-02T11:28:04;101229.13;;;19.78;100.00
6028;BME280;3042;43.194;27.646;2024-03-02T11:30:50;101227.22;;;19.68;100.00
6028;BME280;3042;43.194;27.646;2024-03-02T11:33:25;101227.09;;;19.60;100.00
6028;BME280;3042;43.194;27.646;2024-03-02T11:35:56;101172.38;;;19.24;100.00
6028;BME280;3042;43.194;27.646;2024-03-02T11:38:28;101223.88;;;19.78;100.00
6028;BME280;3042;43.194;27.646;2024-03-02T11:40:56;101229.59;;;19.51;100.00
6028;BME280;3042;43.194;27.646;2024-03-02T11:43:22;101218.63;;;19.78;100.00
6028;BME280;3042;43.194;27.646;2024-03-02T11:45:57;101204.72;;;19.26;100.00
6028;BME280;3042;43.194;27.646;2024-03-02T11:48:25;101218.00;;;19.38;100.00
6028;BME280;3042;43.194;27.646;2024-03-02T11:50:52;101214.91;;;19.64;100.00
6028;BME280;3042;43.194;27.646;2024-03-02T11:53:21;101132.97;;;19.16;100.00
6028;BME280;3042;43.194;27.646;2024-03-02T11:55:50;101210.59;;;19.67;100.00
6028;BME280;3042;43.194;27.646;2024-03-02T11:58:19;101149.31;;;19.01;100.00
6028;BME280;3042;43.194;27.646;2024-03-02T12:00:50;101210.88;;;19.28;100.00
6028;BME280;3042;43.194;27.646;2024-03-02T12:03:18;101186.31;;;18.72;100.00
6028;BME280;3042;43.194;27.646;2024-03-02T12:05:48;101211.94;;;18.87;100.00
6028;BME280;3042;43.194;27.646;2024-03-02T12:08:18;101197.25;;;19.50;100.00
6028;BME280;3042;43.194;27.646;2024-03-02T12:10:58;101192.56;;;19.31;100.00
6028;BME280;3042;43.194;27.646;2024-03-02T12:13:26;101192.41;;;19.78;100.00
6028;BME280;3042;43.194;27.646;2024-03-02T12:15:54;101199.47;;;19.82;100.00
6028;BME280;3042;43.194;27.646;2024-03-02T12:18:22;101203.22;;;19.43;100.00
6028;BME280;3042;43.194;27.646;2024-03-02T12:20:49;101107.91;;;19.35;100.00
6028;BME280;3042;43.194;27.646;2024-03-02T12:23:18;101199.00;;;19.51;100.00
6028;BME280;3042;43.194;27.646;2024-03-02T12:25:46;101126.63;;;19.03;100.00
6028;BME280;3042;43.194;27.646;2024-03-02T12:28:15;101199.91;;;19.53;100.00
6028;BME280;3042;43.194;27.646;2024-03-02T12:30:43;101194.59;;;19.49;100.00
6028;BME280;3042;43.194;27.646;2024-03-02T12:33:11;101169.41;;;19.58;100.00
6028;BME280;3042;43.194;27.646;2024-03-02T12:35:39;101193.44;;;19.89;100.00
6028;BME280;3042;43.194;27.646;2024-03-02T12:38:07;101196.94;;;19.88;100.00
6028;BME280;3042;43.194;27.646;2024-03-02T12:40:34;101194.13;;;19.76;100.00
6028;BME280;3042;43.194;27.646;2024-03-02T12:43:03;101198.03;;;20.06;100.00
6028;BME280;3042;43.194;27.646;2024-03-02T12:45:31;101196.06;;;19.89;100.00
6028;BME280;3042;43.194;27.646;2024-03-02T12:48:00;101197.91;;;19.96;100.00
6028;BME280;3042;43.194;27.646;2024-03-02T12:50:27;101204.59;;;19.73;100.00
6028;BME280;3042;43.194;27.646;2024-03-02T12:52:54;101154.81;;;19.19;100.00
6028;BME280;3042;43.194;27.646;2024-03-02T12:55:22;101201.72;;;19.57;100.00
6028;BME280;3042;43.194;27.646;2024-03-02T12:57:50;101200.22;;;19.72;100.00